sensor_id;sensor_type;location;lat;lon;timestamp;P1;durP1;ratioP1;P2;durP2;ratioP2
48847;SDS011;36611;51.638;5.784;2022-11-04T00:00:18;5.30;;;4.78;;
48847;SDS011;36611;51.638;5.784;2022-11-04T00:02:44;4.82;;;4.15;;
48847;SDS011;36611;51.638;5.784;2022-11-04T00:05:15;4.50;;;3.97;;
48847;SDS011;36611;51.638;5.784;2022-11-04T00:07:42;7.38;;;4.70;;
48847;SDS011;36611;51.638;5.784;2022-11-04T00:10:27;5.43;;;4.47;;
48847;SDS011;36611;51.638;5.784;2022-11-04T00:13:13;5.63;;;4.40;;
48847;SDS011;36611;51.638;5.784;2022-11-04T00:15:44;4.95;;;3.53;;
48847;SDS011;36611;51.638;5.784;2022-11-04T00:18:29;3.33;;;2.70;;
48847;SDS011;36611;51.638;5.784;2022-11-04T00:20:56;4.55;;;3.03;;
48847;SDS011;36611;51.638;5.784;2022-11-04T00:23:40;5.07;;;2.88;;
48847;SDS011;36611;51.638;5.784;2022-11-04T00:26:27;4.15;;;2.42;;
48847;SDS011;36611;51.638;5.784;2022-11-04T00:29:12;2.40;;;2.05;;
48847;SDS011;36611;51.638;5.784;2022-11-04T00:31:39;4.05;;;2.13;;
48847;SDS011;36611;51.638;5.784;2022-11-04T00:34:26;2.30;;;1.80;;
48847;SDS011;36611;51.638;5.784;2022-11-04T00:36:52;1.88;;;1.45;;
48847;SDS011;36611;51.638;5.784;2022-11-04T00:39:19;1.73;;;1.63;;
48847;SDS011;36611;51.638;5.784;2022-11-04T00:41:45;2.42;;;1.88;;
48847;SDS011;36611;51.638;5.784;2022-11-04T00:44:14;2.13;;;1.50;;
48847;SDS011;36611;51.638;5.784;2022-11-04T00:46:40;2.60;;;1.50;;
48847;SDS011;36611;51.638;5.784;2022-11-04T00:49:07;1.48;;;1.38;;
48847;SDS011;36611;51.638;5.784;2022-11-04T00:51:33;2.70;;;1.42;;
48847;SDS011;36611;51.638;5.784;2022-11-04T00:54:00;1.83;;;1.40;;
48847;SDS011;36611;51.638;5.784;2022-11-04T00:56:26;1.60;;;1.05;;
48847;SDS011;36611;51.638;5.784;2022-11-04T00:58:53;1.73;;;1.60;;
48847;SDS011;36611;51.638;5.784;2022-11-04T01:01:20;2.00;;;1.38;;
48847;SDS011;36611;51.638;5.784;2022-11-04T01:03:48;2.53;;;1.60;;
48847;SDS011;36611;51.638;5.784;2022-11-04T01:06:17;2.58;;;1.60;;
48847;SDS011;36611;51.638;5.784;2022-11-04T01:08:46;3.53;;;2.10;;
48847;SDS011;36611;51.638;5.784;2022-11-04T01:11:12;4.05;;;2.90;;
48847;SDS011;36611;51.638;5.784;2022-11-04T01:13:40;4.65;;;4.07;;
48847;SDS011;36611;51.638;5.784;2022-11-04T01:16:09;5.35;;;4.43;;
48847;SDS011;36611;51.638;5.784;2022-11-04T01:18:37;8.02;;;5.60;;
48847;SDS011;36611;51.638;5.784;2022-11-04T01:21:05;6.22;;;5.55;;
48847;SDS011;36611;51.638;5.784;2022-11-04T01:23:33;6.85;;;5.57;;
48847;SDS011;36611;51.638;5.784;2022-11-04T01:26:00;7.40;;;6.65;;
48847;SDS011;36611;51.638;5.784;2022-11-04T01:28:29;8.40;;;6.22;;
48847;SDS011;36611;51.638;5.784;2022-11-04T01:30:56;8.30;;;6.57;;
48847;SDS011;36611;51.638;5.784;2022-11-04T01:33:22;7.43;;;6.60;;
48847;SDS011;36611;51.638;5.784;2022-11-04T01:35:50;8.20;;;6.78;;
48847;SDS011;36611;51.638;5.784;2022-11-04T01:38:16;10.43;;;7.47;;
48847;SDS011;36611;51.638;5.784;2022-11-04T01:40:43;9.80;;;7.57;;
48847;SDS011;36611;51.638;5.784;2022-11-04T01:43:14;9.38;;;8.18;;
48847;SDS011;36611;51.638;5.784;2022-11-04T01:45:47;10.13;;;7.72;;
48847;SDS011;36611;51.638;5.784;2022-11-04T01:48:32;10.50;;;7.90;;
48847;SDS011;36611;51.638;5.784;2022-11-04T01:51:00;10.57;;;8.27;;
48847;SDS011;36611;51.638;5.784;2022-11-04T01:53:27;11.70;;;7.90;;
48847;SDS011;36611;51.638;5.784;2022-11-04T01:55:58;12.25;;;7.40;;
48847;SDS011;36611;51.638;5.784;2022-11-04T01:58:30;10.32;;;7.03;;
48847;SDS011;36611;51.638;5.784;2022-11-04T02:01:00;12.52;;;7.10;;
48847;SDS011;36611;51.638;5.784;2022-11-04T02:03:34;8.73;;;7.10;;
48847;SDS011;36611;51.638;5.784;2022-11-04T02:06:08;10.30;;;7.30;;
48847;SDS011;36611;51.638;5.784;2022-11-04T02:08:34;9.93;;;7.43;;
48847;SDS011;36611;51.638;5.784;2022-11-04T02:11:03;11.40;;;8.13;;
48847;SDS011;36611;51.638;5.784;2022-11-04T02:13:30;12.32;;;7.22;;
48847;SDS011;36611;51.638;5.784;2022-11-04T02:29:39;9.32;;;6.20;;
48847;SDS011;36611;51.638;5.784;2022-11-04T02:32:15;9.95;;;6.20;;
48847;SDS011;36611;51.638;5.784;2022-11-04T02:45:44;4.90;;;3.92;;
48847;SDS011;36611;51.638;5.784;2022-11-04T02:48:19;9.75;;;4.82;;
48847;SDS011;36611;51.638;5.784;2022-11-04T02:51:04;6.45;;;4.05;;
48847;SDS011;36611;51.638;5.784;2022-11-04T02:53:44;7.03;;;4.10;;
48847;SDS011;36611;51.638;5.784;2022-11-04T02:56:16;5.53;;;3.95;;
48847;SDS011;36611;51.638;5.784;2022-11-04T02:58:47;8.15;;;4.35;;
48847;SDS011;36611;51.638;5.784;2022-11-04T03:01:20;6.80;;;3.70;;
48847;SDS011;36611;51.638;5.784;2022-11-04T03:03:51;7.03;;;3.33;;
48847;SDS011;36611;51.638;5.784;2022-11-04T03:06:26;6.63;;;3.05;;
48847;SDS011;36611;51.638;5.784;2022-11-04T03:08:54;7.65;;;3.42;;
48847;SDS011;36611;51.638;5.784;2022-11-04T03:11:23;12.60;;;3.90;;
48847;SDS011;36611;51.638;5.784;2022-11-04T03:13:54;6.13;;;2.75;;
48847;SDS011;36611;51.638;5.784;2022-11-04T03:21:52;4.85;;;2.63;;
48847;SDS011;36611;51.638;5.784;2022-11-04T03:24:27;4.97;;;2.28;;
48847;SDS011;36611;51.638;5.784;2022-11-04T03:26:58;3.28;;;2.33;;
48847;SDS011;36611;51.638;5.784;2022-11-04T03:31:59;7.03;;;2.58;;
48847;SDS011;36611;51.638;5.784;2022-11-04T03:34:31;5.10;;;2.33;;
48847;SDS011;36611;51.638;5.784;2022-11-04T03:36:58;4.32;;;2.33;;
48847;SDS011;36611;51.638;5.784;2022-11-04T03:39:25;5.75;;;2.38;;
48847;SDS011;36611;51.638;5.784;2022-11-04T03:41:55;7.03;;;2.65;;
48847;SDS011;36611;51.638;5.784;2022-11-04T03:44:24;4.25;;;2.40;;
48847;SDS011;36611;51.638;5.784;2022-11-04T03:46:53;4.50;;;2.88;;
48847;SDS011;36611;51.638;5.784;2022-11-04T03:49:20;5.03;;;3.40;;
48847;SDS011;36611;51.638;5.784;2022-11-04T03:51:51;9.18;;;3.38;;
48847;SDS011;36611;51.638;5.784;2022-11-04T03:54:19;4.82;;;3.30;;
48847;SDS011;36611;51.638;5.784;2022-11-04T04:00:00;5.80;;;3.42;;
48847;SDS011;36611;51.638;5.784;2022-11-04T04:05:04;6.53;;;3.60;;
48847;SDS011;36611;51.638;5.784;2022-11-04T04:07:51;6.32;;;3.95;;
48847;SDS011;36611;51.638;5.784;2022-11-04T04:10:25;11.95;;;4.03;;
48847;SDS011;36611;51.638;5.784;2022-11-04T04:13:06;6.45;;;3.53;;
48847;SDS011;36611;51.638;5.784;2022-11-04T04:15:57;5.70;;;3.40;;
48847;SDS011;36611;51.638;5.784;2022-11-04T04:18:49;7.10;;;2.83;;
48847;SDS011;36611;51.638;5.784;2022-11-04T04:21:26;7.05;;;3.20;;
48847;SDS011;36611;51.638;5.784;2022-11-04T04:23:57;6.38;;;2.75;;
48847;SDS011;36611;51.638;5.784;2022-11-04T04:26:47;5.35;;;2.70;;
48847;SDS011;36611;51.638;5.784;2022-11-04T04:29:34;6.00;;;2.67;;
48847;SDS011;36611;51.638;5.784;2022-11-04T04:32:03;10.05;;;2.80;;
48847;SDS011;36611;51.638;5.784;2022-11-04T04:34:32;6.00;;;2.88;;
48847;SDS011;36611;51.638;5.784;2022-11-04T04:39:28;7.05;;;2.50;;
48847;SDS011;36611;51.638;5.784;2022-11-04T04:42:31;4.57;;;2.33;;
48847;SDS011;36611;51.638;5.784;2022-11-04T04:45:25;4.07;;;2.30;;
48847;SDS011;36611;51.638;5.784;2022-11-04T04:47:57;6.47;;;2.60;;
48847;SDS011;36611;51.638;5.784;2022-11-04T04:50:25;5.93;;;2.40;;
48847;SDS011;36611;51.638;5.784;2022-11-04T04:52:54;4.05;;;2.28;;
48847;SDS011;36611;51.638;5.784;2022-11-04T04:55:23;3.83;;;1.90;;
48847;SDS011;36611;51.638;5.784;2022-11-04T04:57:50;7.82;;;2.67;;
48847;SDS011;36611;51.638;5.784;2022-11-04T05:00:17;6.78;;;2.40;;
48847;SDS011;36611;51.638;5.784;2022-11-04T05:02:46;6.47;;;2.50;;
48847;SDS011;36611;51.638;5.784;2022-11-04T05:05:16;7.25;;;2.75;;
48847;SDS011;36611;51.638;5.784;2022-11-04T05:07:43;5.10;;;2.55;;
48847;SDS011;36611;51.638;5.784;2022-11-04T05:10:10;4.80;;;2.50;;
48847;SDS011;36611;51.638;5.784;2022-11-04T05:12:38;6.22;;;2.22;;
48847;SDS011;36611;51.638;5.784;2022-11-04T05:15:28;5.35;;;2.35;;
48847;SDS011;36611;51.638;5.784;2022-11-04T05:17:57;4.22;;;2.00;;
48847;SDS011;36611;51.638;5.784;2022-11-04T05:20:24;8.30;;;2.70;;
48847;SDS011;36611;51.638;5.784;2022-11-04T05:22:52;3.40;;;2.53;;
48847;SDS011;36611;51.638;5.784;2022-11-04T05:25:20;5.60;;;2.53;;
48847;SDS011;36611;51.638;5.784;2022-11-04T05:27:47;6.28;;;2.63;;
48847;SDS011;36611;51.638;5.784;2022-11-04T05:30:13;7.65;;;2.90;;
48847;SDS011;36611;51.638;5.784;2022-11-04T05:32:40;4.00;;;2.53;;
48847;SDS011;36611;51.638;5.784;2022-11-04T05:35:06;5.22;;;2.42;;
48847;SDS011;36611;51.638;5.784;2022-11-04T05:37:33;8.27;;;3.10;;
48847;SDS011;36611;51.638;5.784;2022-11-04T05:40:00;7.07;;;2.53;;
48847;SDS011;36611;51.638;5.784;2022-11-04T05:42:26;5.57;;;2.60;;
48847;SDS011;36611;51.638;5.784;2022-11-04T05:44:58;4.80;;;2.88;;
48847;SDS011;36611;51.638;5.784;2022-11-04T05:47:25;5.28;;;3.00;;
48847;SDS011;36611;51.638;5.784;2022-11-04T05:49:51;6.88;;;2.80;;
48847;SDS011;36611;51.638;5.784;2022-11-04T05:52:18;5.55;;;2.55;;
48847;SDS011;36611;51.638;5.784;2022-11-04T05:54:49;10.00;;;2.85;;
48847;SDS011;36611;51.638;5.784;2022-11-04T05:57:15;5.93;;;2.42;;
48847;SDS011;36611;51.638;5.784;2022-11-04T05:59:42;3.88;;;2.50;;
48847;SDS011;36611;51.638;5.784;2022-11-04T06:02:08;4.20;;;2.30;;
48847;SDS011;36611;51.638;5.784;2022-11-04T06:04:36;4.85;;;2.47;;
48847;SDS011;36611;51.638;5.784;2022-11-04T06:07:03;4.80;;;2.88;;
48847;SDS011;36611;51.638;5.784;2022-11-04T06:09:30;4.68;;;2.15;;
48847;SDS011;36611;51.638;5.784;2022-11-04T06:12:06;6.53;;;2.60;;
48847;SDS011;36611;51.638;5.784;2022-11-04T06:14:33;4.55;;;2.47;;
48847;SDS011;36611;51.638;5.784;2022-11-04T06:17:00;8.20;;;3.08;;
48847;SDS011;36611;51.638;5.784;2022-11-04T06:19:27;7.55;;;2.47;;
48847;SDS011;36611;51.638;5.784;2022-11-04T06:21:54;6.20;;;2.83;;
48847;SDS011;36611;51.638;5.784;2022-11-04T06:24:25;6.07;;;3.30;;
48847;SDS011;36611;51.638;5.784;2022-11-04T06:26:51;5.18;;;2.58;;
48847;SDS011;36611;51.638;5.784;2022-11-04T06:29:18;7.07;;;3.30;;
48847;SDS011;36611;51.638;5.784;2022-11-04T06:31:44;6.68;;;2.70;;
48847;SDS011;36611;51.638;5.784;2022-11-04T06:34:15;8.27;;;3.28;;
48847;SDS011;36611;51.638;5.784;2022-11-04T06:36:41;7.22;;;2.58;;
48847;SDS011;36611;51.638;5.784;2022-11-04T06:39:08;7.20;;;2.95;;
48847;SDS011;36611;51.638;5.784;2022-11-04T06:41:35;7.47;;;3.00;;
48847;SDS011;36611;51.638;5.784;2022-11-04T06:44:02;8.25;;;3.22;;
48847;SDS011;36611;51.638;5.784;2022-11-04T06:49:03;6.47;;;3.40;;
48847;SDS011;36611;51.638;5.784;2022-11-04T06:51:31;8.10;;;3.42;;
48847;SDS011;36611;51.638;5.784;2022-11-04T06:53:58;5.38;;;3.35;;
48847;SDS011;36611;51.638;5.784;2022-11-04T06:56:25;10.05;;;3.22;;
48847;SDS011;36611;51.638;5.784;2022-11-04T06:58:52;10.88;;;3.13;;
48847;SDS011;36611;51.638;5.784;2022-11-04T07:01:20;10.07;;;4.32;;
48847;SDS011;36611;51.638;5.784;2022-11-04T07:03:51;8.98;;;3.13;;
48847;SDS011;36611;51.638;5.784;2022-11-04T07:06:21;7.90;;;3.53;;
48847;SDS011;36611;51.638;5.784;2022-11-04T07:08:49;7.47;;;3.90;;
48847;SDS011;36611;51.638;5.784;2022-11-04T07:11:18;7.22;;;4.20;;
48847;SDS011;36611;51.638;5.784;2022-11-04T07:13:47;5.68;;;3.85;;
48847;SDS011;36611;51.638;5.784;2022-11-04T07:16:14;6.90;;;4.55;;
48847;SDS011;36611;51.638;5.784;2022-11-04T07:18:42;7.50;;;3.95;;
48847;SDS011;36611;51.638;5.784;2022-11-04T07:21:09;8.75;;;4.55;;
48847;SDS011;36611;51.638;5.784;2022-11-04T07:23:36;7.78;;;3.63;;
48847;SDS011;36611;51.638;5.784;2022-11-04T07:26:04;6.05;;;3.65;;
48847;SDS011;36611;51.638;5.784;2022-11-04T07:28:32;9.55;;;4.50;;
48847;SDS011;36611;51.638;5.784;2022-11-04T07:31:00;8.15;;;3.92;;
48847;SDS011;36611;51.638;5.784;2022-11-04T07:33:29;9.75;;;4.20;;
48847;SDS011;36611;51.638;5.784;2022-11-04T07:35:55;6.47;;;4.03;;
48847;SDS011;36611;51.638;5.784;2022-11-04T07:38:23;8.05;;;3.97;;
48847;SDS011;36611;51.638;5.784;2022-11-04T07:40:50;7.25;;;4.70;;
48847;SDS011;36611;51.638;5.784;2022-11-04T07:43:17;9.50;;;4.03;;
48847;SDS011;36611;51.638;5.784;2022-11-04T07:45:57;9.30;;;4.15;;
48847;SDS011;36611;51.638;5.784;2022-11-04T07:48:32;6.53;;;4.25;;
48847;SDS011;36611;51.638;5.784;2022-11-04T07:50:59;5.90;;;4.00;;
48847;SDS011;36611;51.638;5.784;2022-11-04T07:53:27;10.77;;;3.80;;
48847;SDS011;36611;51.638;5.784;2022-11-04T07:55:56;7.03;;;3.65;;
48847;SDS011;36611;51.638;5.784;2022-11-04T07:58:23;7.70;;;3.95;;
48847;SDS011;36611;51.638;5.784;2022-11-04T08:00:56;10.85;;;3.92;;
48847;SDS011;36611;51.638;5.784;2022-11-04T08:03:23;8.75;;;4.10;;
48847;SDS011;36611;51.638;5.784;2022-11-04T08:05:56;7.75;;;3.83;;
48847;SDS011;36611;51.638;5.784;2022-11-04T08:08:24;9.55;;;3.78;;
48847;SDS011;36611;51.638;5.784;2022-11-04T08:10:55;7.85;;;3.88;;
48847;SDS011;36611;51.638;5.784;2022-11-04T08:13:27;12.07;;;4.22;;
48847;SDS011;36611;51.638;5.784;2022-11-04T08:16:02;7.22;;;4.43;;
48847;SDS011;36611;51.638;5.784;2022-11-04T08:18:33;7.40;;;4.03;;
48847;SDS011;36611;51.638;5.784;2022-11-04T08:20:59;10.23;;;5.18;;
48847;SDS011;36611;51.638;5.784;2022-11-04T08:23:27;8.10;;;4.55;;
48847;SDS011;36611;51.638;5.784;2022-11-04T08:25:54;10.20;;;4.20;;
48847;SDS011;36611;51.638;5.784;2022-11-04T08:28:21;9.10;;;4.78;;
48847;SDS011;36611;51.638;5.784;2022-11-04T08:33:22;8.13;;;4.70;;
48847;SDS011;36611;51.638;5.784;2022-11-04T08:35:52;7.55;;;4.72;;
48847;SDS011;36611;51.638;5.784;2022-11-04T08:38:19;9.15;;;4.35;;
48847;SDS011;36611;51.638;5.784;2022-11-04T08:40:46;9.50;;;4.60;;
48847;SDS011;36611;51.638;5.784;2022-11-04T08:43:13;11.05;;;5.63;;
48847;SDS011;36611;51.638;5.784;2022-11-04T08:45:41;11.77;;;5.03;;
48847;SDS011;36611;51.638;5.784;2022-11-04T08:48:10;11.70;;;4.95;;
48847;SDS011;36611;51.638;5.784;2022-11-04T08:50:38;12.38;;;4.93;;
48847;SDS011;36611;51.638;5.784;2022-11-04T08:53:05;11.98;;;5.57;;
48847;SDS011;36611;51.638;5.784;2022-11-04T08:55:34;9.50;;;5.15;;
48847;SDS011;36611;51.638;5.784;2022-11-04T08:58:01;7.70;;;4.57;;
48847;SDS011;36611;51.638;5.784;2022-11-04T09:00:27;9.98;;;4.30;;
48847;SDS011;36611;51.638;5.784;2022-11-04T09:02:54;9.20;;;4.60;;
48847;SDS011;36611;51.638;5.784;2022-11-04T09:05:21;11.55;;;4.40;;
48847;SDS011;36611;51.638;5.784;2022-11-04T09:07:47;14.18;;;5.13;;
48847;SDS011;36611;51.638;5.784;2022-11-04T09:10:14;8.05;;;4.40;;
48847;SDS011;36611;51.638;5.784;2022-11-04T09:12:42;9.85;;;4.57;;
48847;SDS011;36611;51.638;5.784;2022-11-04T09:15:11;8.15;;;4.32;;
48847;SDS011;36611;51.638;5.784;2022-11-04T09:17:38;9.18;;;4.47;;
48847;SDS011;36611;51.638;5.784;2022-11-04T09:20:05;8.70;;;5.10;;
48847;SDS011;36611;51.638;5.784;2022-11-04T09:22:33;10.38;;;5.07;;
48847;SDS011;36611;51.638;5.784;2022-11-04T09:25:00;7.68;;;4.10;;
48847;SDS011;36611;51.638;5.784;2022-11-04T09:27:27;9.18;;;4.45;;
48847;SDS011;36611;51.638;5.784;2022-11-04T09:29:54;10.75;;;4.72;;
48847;SDS011;36611;51.638;5.784;2022-11-04T09:32:20;7.78;;;4.45;;
48847;SDS011;36611;51.638;5.784;2022-11-04T09:34:51;9.20;;;4.43;;
48847;SDS011;36611;51.638;5.784;2022-11-04T09:37:17;8.68;;;4.20;;
48847;SDS011;36611;51.638;5.784;2022-11-04T09:39:44;9.57;;;4.32;;
48847;SDS011;36611;51.638;5.784;2022-11-04T09:47:46;11.63;;;4.78;;
48847;SDS011;36611;51.638;5.784;2022-11-04T09:50:22;13.02;;;4.72;;
48847;SDS011;36611;51.638;5.784;2022-11-04T09:52:54;12.32;;;4.68;;
48847;SDS011;36611;51.638;5.784;2022-11-04T09:55:31;8.68;;;4.95;;
48847;SDS011;36611;51.638;5.784;2022-11-04T09:58:00;9.95;;;4.88;;
48847;SDS011;36611;51.638;5.784;2022-11-04T10:00:27;8.48;;;4.30;;
48847;SDS011;36611;51.638;5.784;2022-11-04T10:13:45;10.38;;;4.75;;
48847;SDS011;36611;51.638;5.784;2022-11-04T10:19:05;9.20;;;4.65;;
48847;SDS011;36611;51.638;5.784;2022-11-04T10:21:45;19.20;;;5.90;;
48847;SDS011;36611;51.638;5.784;2022-11-04T10:27:16;12.15;;;5.57;;
48847;SDS011;36611;51.638;5.784;2022-11-04T10:29:49;10.80;;;5.82;;
48847;SDS011;36611;51.638;5.784;2022-11-04T10:32:21;9.15;;;5.50;;
48847;SDS011;36611;51.638;5.784;2022-11-04T10:34:57;11.88;;;6.03;;
48847;SDS011;36611;51.638;5.784;2022-11-04T10:37:29;14.23;;;6.20;;
48847;SDS011;36611;51.638;5.784;2022-11-04T10:40:03;10.52;;;5.53;;
48847;SDS011;36611;51.638;5.784;2022-11-04T10:43:01;11.68;;;5.22;;
48847;SDS011;36611;51.638;5.784;2022-11-04T10:45:37;8.80;;;4.72;;
48847;SDS011;36611;51.638;5.784;2022-11-04T10:48:24;9.63;;;5.13;;
48847;SDS011;36611;51.638;5.784;2022-11-04T10:50:57;8.93;;;4.45;;
48847;SDS011;36611;51.638;5.784;2022-11-04T10:53:26;11.43;;;4.65;;
48847;SDS011;36611;51.638;5.784;2022-11-04T11:01:49;12.20;;;5.00;;
48847;SDS011;36611;51.638;5.784;2022-11-04T11:04:32;10.77;;;4.60;;
48847;SDS011;36611;51.638;5.784;2022-11-04T11:07:02;8.40;;;4.72;;
48847;SDS011;36611;51.638;5.784;2022-11-04T11:09:31;11.43;;;5.30;;
48847;SDS011;36611;51.638;5.784;2022-11-04T11:12:02;8.52;;;4.82;;
48847;SDS011;36611;51.638;5.784;2022-11-04T11:14:51;8.55;;;5.88;;
48847;SDS011;36611;51.638;5.784;2022-11-04T11:17:22;14.43;;;5.20;;
48847;SDS011;36611;51.638;5.784;2022-11-04T11:22:28;13.82;;;5.45;;
48847;SDS011;36611;51.638;5.784;2022-11-04T11:27:49;12.63;;;6.68;;
48847;SDS011;36611;51.638;5.784;2022-11-04T11:30:29;11.10;;;7.30;;
48847;SDS011;36611;51.638;5.784;2022-11-04T11:35:31;8.77;;;6.88;;
48847;SDS011;36611;51.638;5.784;2022-11-04T11:38:21;10.55;;;7.57;;
48847;SDS011;36611;51.638;5.784;2022-11-04T11:40:49;13.60;;;7.20;;
48847;SDS011;36611;51.638;5.784;2022-11-04T11:43:41;11.07;;;6.95;;
48847;SDS011;36611;51.638;5.784;2022-11-04T11:46:11;15.43;;;7.30;;
48847;SDS011;36611;51.638;5.784;2022-11-04T11:48:39;11.30;;;6.32;;
48847;SDS011;36611;51.638;5.784;2022-11-04T11:51:11;10.45;;;6.45;;
48847;SDS011;36611;51.638;5.784;2022-11-04T11:53:39;13.02;;;6.40;;
48847;SDS011;36611;51.638;5.784;2022-11-04T12:02:40;9.65;;;6.50;;
48847;SDS011;36611;51.638;5.784;2022-11-04T12:05:26;10.32;;;6.78;;
48847;SDS011;36611;51.638;5.784;2022-11-04T12:08:31;12.98;;;7.40;;
48847;SDS011;36611;51.638;5.784;2022-11-04T12:14:22;12.30;;;7.45;;
48847;SDS011;36611;51.638;5.784;2022-11-04T12:22:53;16.23;;;8.05;;
48847;SDS011;36611;51.638;5.784;2022-11-04T12:25:33;10.23;;;7.53;;
48847;SDS011;36611;51.638;5.784;2022-11-04T12:31:17;14.35;;;8.68;;
48847;SDS011;36611;51.638;5.784;2022-11-04T12:42:40;16.73;;;9.35;;
48847;SDS011;36611;51.638;5.784;2022-11-04T12:47:58;15.70;;;7.20;;
48847;SDS011;36611;51.638;5.784;2022-11-04T12:56:16;16.98;;;8.73;;
48847;SDS011;36611;51.638;5.784;2022-11-04T13:01:18;11.02;;;8.10;;
48847;SDS011;36611;51.638;5.784;2022-11-04T13:03:57;13.82;;;7.43;;
48847;SDS011;36611;51.638;5.784;2022-11-04T13:06:40;14.65;;;7.10;;
48847;SDS011;36611;51.638;5.784;2022-11-04T13:09:15;15.20;;;7.07;;
48847;SDS011;36611;51.638;5.784;2022-11-04T13:12:29;12.95;;;7.10;;
48847;SDS011;36611;51.638;5.784;2022-11-04T13:15:02;14.00;;;7.65;;
48847;SDS011;36611;51.638;5.784;2022-11-04T13:17:37;11.82;;;8.05;;
48847;SDS011;36611;51.638;5.784;2022-11-04T13:25:23;12.40;;;6.95;;
48847;SDS011;36611;51.638;5.784;2022-11-04T13:27:53;12.85;;;7.97;;
48847;SDS011;36611;51.638;5.784;2022-11-04T13:30:29;14.55;;;8.43;;
48847;SDS011;36611;51.638;5.784;2022-11-04T13:38:54;10.65;;;7.40;;
48847;SDS011;36611;51.638;5.784;2022-11-04T13:46:50;9.43;;;7.70;;
48847;SDS011;36611;51.638;5.784;2022-11-04T13:49:32;13.93;;;9.02;;
48847;SDS011;36611;51.638;5.784;2022-11-04T13:52:04;12.27;;;8.18;;
48847;SDS011;36611;51.638;5.784;2022-11-04T13:54:43;14.07;;;7.72;;
48847;SDS011;36611;51.638;5.784;2022-11-04T13:57:26;12.45;;;7.95;;
48847;SDS011;36611;51.638;5.784;2022-11-04T14:16:00;17.67;;;13.13;;
48847;SDS011;36611;51.638;5.784;2022-11-04T14:18:30;17.55;;;12.52;;
48847;SDS011;36611;51.638;5.784;2022-11-04T14:23:34;17.60;;;13.48;;
48847;SDS011;36611;51.638;5.784;2022-11-04T14:26:06;19.17;;;12.80;;
48847;SDS011;36611;51.638;5.784;2022-11-04T14:28:40;19.92;;;13.18;;
48847;SDS011;36611;51.638;5.784;2022-11-04T14:31:10;16.52;;;12.18;;
48847;SDS011;36611;51.638;5.784;2022-11-04T14:33:53;16.23;;;12.77;;
48847;SDS011;36611;51.638;5.784;2022-11-04T14:36:39;17.95;;;13.25;;
48847;SDS011;36611;51.638;5.784;2022-11-04T14:44:07;17.20;;;12.52;;
48847;SDS011;36611;51.638;5.784;2022-11-04T14:46:52;17.33;;;13.07;;
48847;SDS011;36611;51.638;5.784;2022-11-04T14:52:04;16.50;;;13.02;;
48847;SDS011;36611;51.638;5.784;2022-11-04T14:54:44;15.80;;;12.85;;
48847;SDS011;36611;51.638;5.784;2022-11-04T14:57:12;20.73;;;13.15;;
48847;SDS011;36611;51.638;5.784;2022-11-04T14:59:43;19.85;;;13.70;;
48847;SDS011;36611;51.638;5.784;2022-11-04T15:02:11;18.45;;;13.50;;
48847;SDS011;36611;51.638;5.784;2022-11-04T15:04:49;19.55;;;12.88;;
48847;SDS011;36611;51.638;5.784;2022-11-04T15:07:24;18.48;;;13.65;;
48847;SDS011;36611;51.638;5.784;2022-11-04T15:09:57;17.25;;;12.70;;
48847;SDS011;36611;51.638;5.784;2022-11-04T15:12:24;19.67;;;12.93;;
48847;SDS011;36611;51.638;5.784;2022-11-04T15:17:57;18.75;;;13.32;;
48847;SDS011;36611;51.638;5.784;2022-11-04T15:20:27;19.58;;;12.88;;
48847;SDS011;36611;51.638;5.784;2022-11-04T15:22:56;16.63;;;11.70;;
48847;SDS011;36611;51.638;5.784;2022-11-04T15:25:26;18.20;;;11.93;;
48847;SDS011;36611;51.638;5.784;2022-11-04T15:27:54;15.82;;;11.45;;
48847;SDS011;36611;51.638;5.784;2022-11-04T15:30:23;16.17;;;11.40;;
48847;SDS011;36611;51.638;5.784;2022-11-04T15:32:55;16.23;;;11.32;;
48847;SDS011;36611;51.638;5.784;2022-11-04T15:35:30;15.63;;;11.20;;
48847;SDS011;36611;51.638;5.784;2022-11-04T15:37:59;16.15;;;11.60;;
48847;SDS011;36611;51.638;5.784;2022-11-04T15:40:27;13.85;;;10.60;;
48847;SDS011;36611;51.638;5.784;2022-11-04T15:42:55;14.98;;;11.02;;
48847;SDS011;36611;51.638;5.784;2022-11-04T15:45:26;14.30;;;10.02;;
48847;SDS011;36611;51.638;5.784;2022-11-04T15:50:50;13.90;;;9.95;;
48847;SDS011;36611;51.638;5.784;2022-11-04T15:53:53;14.45;;;8.95;;
48847;SDS011;36611;51.638;5.784;2022-11-04T15:56:26;12.10;;;9.20;;
48847;SDS011;36611;51.638;5.784;2022-11-04T15:58:56;12.13;;;8.48;;
48847;SDS011;36611;51.638;5.784;2022-11-04T16:01:23;10.95;;;8.60;;
48847;SDS011;36611;51.638;5.784;2022-11-04T16:03:52;13.48;;;8.70;;
48847;SDS011;36611;51.638;5.784;2022-11-04T16:06:35;12.75;;;6.22;;
48847;SDS011;36611;51.638;5.784;2022-11-04T16:09:25;10.80;;;5.63;;
48847;SDS011;36611;51.638;5.784;2022-11-04T16:14:54;9.25;;;5.53;;
48847;SDS011;36611;51.638;5.784;2022-11-04T16:17:23;7.05;;;5.25;;
48847;SDS011;36611;51.638;5.784;2022-11-04T16:19:57;7.28;;;5.30;;
48847;SDS011;36611;51.638;5.784;2022-11-04T16:22:28;7.55;;;4.32;;
48847;SDS011;36611;51.638;5.784;2022-11-04T16:24:58;7.95;;;3.55;;
48847;SDS011;36611;51.638;5.784;2022-11-04T16:27:27;8.45;;;4.03;;
48847;SDS011;36611;51.638;5.784;2022-11-04T16:32:43;4.18;;;2.13;;
48847;SDS011;36611;51.638;5.784;2022-11-04T16:35:17;2.90;;;1.90;;
48847;SDS011;36611;51.638;5.784;2022-11-04T16:37:47;3.85;;;2.10;;
48847;SDS011;36611;51.638;5.784;2022-11-04T16:40:16;4.15;;;1.33;;
48847;SDS011;36611;51.638;5.784;2022-11-04T16:42:47;3.40;;;1.95;;
48847;SDS011;36611;51.638;5.784;2022-11-04T16:45:29;2.17;;;1.50;;
48847;SDS011;36611;51.638;5.784;2022-11-04T16:47:58;3.72;;;1.92;;
48847;SDS011;36611;51.638;5.784;2022-11-04T16:50:25;2.67;;;1.70;;
48847;SDS011;36611;51.638;5.784;2022-11-04T16:52:52;2.10;;;1.30;;
48847;SDS011;36611;51.638;5.784;2022-11-04T16:55:22;4.28;;;1.88;;
48847;SDS011;36611;51.638;5.784;2022-11-04T16:57:53;3.38;;;1.17;;
48847;SDS011;36611;51.638;5.784;2022-11-04T17:00:24;1.65;;;1.20;;
48847;SDS011;36611;51.638;5.784;2022-11-04T17:02:52;2.72;;;1.02;;
48847;SDS011;36611;51.638;5.784;2022-11-04T17:05:20;1.98;;;1.27;;
48847;SDS011;36611;51.638;5.784;2022-11-04T17:07:46;1.85;;;1.10;;
48847;SDS011;36611;51.638;5.784;2022-11-04T17:10:29;2.35;;;1.17;;
48847;SDS011;36611;51.638;5.784;2022-11-04T17:12:56;2.35;;;1.48;;
48847;SDS011;36611;51.638;5.784;2022-11-04T17:15:23;3.10;;;1.30;;
48847;SDS011;36611;51.638;5.784;2022-11-04T17:17:51;2.67;;;1.58;;
48847;SDS011;36611;51.638;5.784;2022-11-04T17:20:17;3.08;;;1.10;;
48847;SDS011;36611;51.638;5.784;2022-11-04T17:22:44;2.13;;;1.27;;
48847;SDS011;36611;51.638;5.784;2022-11-04T17:25:17;3.47;;;1.60;;
48847;SDS011;36611;51.638;5.784;2022-11-04T17:27:46;3.03;;;1.30;;
48847;SDS011;36611;51.638;5.784;2022-11-04T17:30:13;5.03;;;1.20;;
48847;SDS011;36611;51.638;5.784;2022-11-04T17:32:40;3.92;;;1.52;;
48847;SDS011;36611;51.638;5.784;2022-11-04T17:35:11;4.97;;;1.50;;
48847;SDS011;36611;51.638;5.784;2022-11-04T17:37:39;3.17;;;1.30;;
48847;SDS011;36611;51.638;5.784;2022-11-04T17:40:06;1.80;;;1.15;;
48847;SDS011;36611;51.638;5.784;2022-11-04T17:42:33;3.08;;;1.33;;
48847;SDS011;36611;51.638;5.784;2022-11-04T17:45:22;2.72;;;1.30;;
48847;SDS011;36611;51.638;5.784;2022-11-04T17:47:49;3.20;;;1.48;;
48847;SDS011;36611;51.638;5.784;2022-11-04T17:50:15;2.28;;;1.40;;
48847;SDS011;36611;51.638;5.784;2022-11-04T17:52:42;3.55;;;1.60;;
48847;SDS011;36611;51.638;5.784;2022-11-04T17:55:13;3.97;;;1.60;;
48847;SDS011;36611;51.638;5.784;2022-11-04T17:57:44;3.47;;;1.60;;
48847;SDS011;36611;51.638;5.784;2022-11-04T18:00:11;4.03;;;1.70;;
48847;SDS011;36611;51.638;5.784;2022-11-04T18:02:40;4.78;;;2.10;;